Time;durP1;ratioP1;P1;durP2;ratioP2;P2;SDS_P1;SDS_P2;PMS_P1;PMS_P2;Temp;Humidity;BMP_temperature;BMP_pressure;BME280_temperature;BME280_humidity;BME280_pressure;Samples;Min_cycle;Max_cycle;Signal;HPM_P1;HPM_P2
2022/02/17 00:02:44;;;;;;;;;;;;;;;2.82;100.00;99369.94;4959398;28;20753;-61
2022/02/17 00:05:29;;;;;;;30.90;15.55;;;;;;;2.70;100.00;99369.91;4990598;28;19940;-63
2022/02/17 00:08:14;;;;;;;34.33;16.58;;;;;;;2.53;100.00;99352.38;4959113;28;20200;-63
2022/02/17 00:10:59;;;;;;;34.88;16.63;;;;;;;2.61;100.00;99359.38;4962550;28;20050;-62
2022/02/17 00:13:46;;;;;;;30.58;15.80;;;;;;;2.64;100.00;99358.50;4990839;28;20061;-62
2022/02/17 00:16:30;;;;;;;34.42;17.17;;;;;;;2.57;100.00;99341.91;5010604;28;20081;-62
2022/02/17 00:19:15;;;;;;;30.10;16.50;;;;;;;2.43;100.00;99337.47;5005868;28;20055;-62
2022/02/17 00:21:59;;;;;;;35.03;16.85;;;;;;;2.42;100.00;99333.13;5007336;28;20418;-61
2022/02/17 00:24:45;;;;;;;37.92;18.20;;;;;;;2.50;100.00;99331.41;5006073;28;20100;-61
2022/02/17 00:27:30;;;;;;;42.08;19.25;;;;;;;2.71;100.00;99328.88;5006670;28;20513;-62
2022/02/17 00:30:15;;;;;;;39.08;18.20;;;;;;;2.82;100.00;99335.03;4973489;28;20057;-63
2022/02/17 00:32:59;;;;;;;34.65;16.27;;;;;;;2.64;100.00;99324.47;4986691;28;20061;-62
2022/02/17 00:35:46;;;;;;;34.45;16.10;;;;;;;2.07;100.00;99319.84;4986612;28;20065;-61
2022/02/17 00:38:32;;;;;;;37.90;18.27;;;;;;;2.11;100.00;99325.94;4985599;28;20807;-60
2022/02/17 00:41:19;;;;;;;34.50;17.85;;;;;;;2.24;100.00;99318.19;4970759;28;20491;-63
2022/02/17 00:44:04;;;;;;;36.03;18.75;;;;;;;2.20;100.00;99303.34;4983660;28;20096;-63
2022/02/17 00:46:49;;;;;;;37.22;17.45;;;;;;;2.24;100.00;99299.88;4998503;28;20052;-65
2022/02/17 00:49:34;;;;;;;36.42;17.48;;;;;;;2.21;100.00;99292.00;5005312;28;20068;-64
2022/02/17 00:52:18;;;;;;;35.20;17.30;;;;;;;2.01;100.00;99305.88;5002286;28;20474;-63
2022/02/17 00:55:04;;;;;;;40.47;18.67;;;;;;;1.84;100.00;99289.16;5005407;28;20141;-63
2022/02/17 00:57:48;;;;;;;39.85;18.48;;;;;;;1.84;100.00;99291.78;5006109;28;20061;-62
2022/02/17 01:00:36;;;;;;;37.40;18.80;;;;;;;2.01;100.00;99264.03;4988992;28;20053;-65
2022/02/17 01:03:30;;;;;;;40.72;18.42;;;;;;;1.83;100.00;99243.00;5005776;28;20065;-62
2022/02/17 01:06:16;;;;;;;40.67;18.52;;;;;;;2.11;100.00;99256.25;5005075;28;20076;-64
2022/02/17 01:09:00;;;;;;;38.67;17.38;;;;;;;2.30;100.00;99241.50;4977861;28;20107;-63
2022/02/17 01:11:47;;;;;;;40.63;18.77;;;;;;;2.36;100.00;99239.78;4991946;28;20057;-63
2022/02/17 01:14:31;;;;;;;38.40;18.83;;;;;;;2.33;100.00;99231.06;5005633;28;20088;-64
2022/02/17 01:17:16;;;;;;;41.45;18.88;;;;;;;2.19;100.00;99217.94;4941540;28;20113;-62
2022/02/17 01:20:01;;;;;;;39.05;18.92;;;;;;;2.44;100.00;99217.16;4967577;28;20141;-63
2022/02/17 01:22:47;;;;;;;38.10;19.40;;;;;;;2.28;100.00;99201.38;4957285;28;20061;-61
2022/02/17 01:25:31;;;;;;;40.42;19.33;;;;;;;2.27;100.00;99208.38;4969497;28;20138;-63
2022/02/17 01:28:17;;;;;;;41.28;19.83;;;;;;;2.38;100.00;99192.72;4970430;28;20062;-62
2022/02/17 01:31:06;;;;;;;41.00;18.63;;;;;;;2.36;100.00;99200.56;4980719;28;20073;-61
2022/02/17 01:33:53;;;;;;;35.55;17.20;;;;;;;2.15;100.00;99153.41;4978584;28;20506;-63
2022/02/17 01:36:37;;;;;;;37.97;18.33;;;;;;;2.34;100.00;99186.56;4968773;28;20430;-63
2022/02/17 01:39:23;;;;;;;41.20;18.85;;;;;;;2.29;100.00;99162.16;4954918;28;20125;-66
2022/02/17 01:42:09;;;;;;;40.35;19.10;;;;;;;2.31;100.00;99152.59;4969895;28;20217;-63
2022/02/17 01:44:54;;;;;;;36.10;18.58;;;;;;;2.43;100.00;99156.97;4990238;28;20061;-62
2022/02/17 01:47:44;;;;;;;41.15;17.67;;;;;;;2.35;100.00;99167.41;4994391;28;20067;-64
2022/02/17 01:50:29;;;;;;;35.80;18.17;;;;;;;2.19;100.00;99125.53;5010062;28;20133;-61
2022/02/17 01:53:14;;;;;;;37.25;17.88;;;;;;;2.15;100.00;99102.84;5006841;28;20096;-63
2022/02/17 01:56:01;;;;;;;37.53;18.40;;;;;;;2.31;100.00;99136.91;4994983;28;20545;-63
2022/02/17 01:58:48;;;;;;;35.92;18.30;;;;;;;2.39;100.00;99143.03;5008622;28;20856;-64
2022/02/17 02:01:43;;;;;;;37.80;18.52;;;;;;;2.39;100.00;99136.91;4982444;28;20442;-61
2022/02/17 02:04:28;;;;;;;38.53;18.02;;;;;;;2.35;100.00;99122.97;5008012;28;20498;-63
2022/02/17 02:07:17;;;;;;;40.20;18.63;;;;;;;2.28;100.00;99121.19;4990322;28;20076;-62
2022/02/17 02:10:02;;;;;;;37.13;17.90;;;;;;;2.30;100.00;99126.44;4988993;28;20580;-62
2022/02/17 02:12:52;;;;;;;39.85;19.45;;;;;;;2.42;100.00;99116.84;4976813;28;20526;-60
2022/02/17 02:15:57;;;;;;;39.45;18.65;;;;;;;2.25;100.00;99112.47;4970132;28;20466;-60
2022/02/17 02:18:43;;;;;;;38.83;18.65;;;;;;;2.24;100.00;99102.88;4956073;28;20053;-65
2022/02/17 02:21:27;;;;;;;39.75;18.77;;;;;;;2.25;100.00;99099.41;4968851;28;20089;-60
2022/02/17 02:24:12;;;;;;;38.83;18.10;;;;;;;2.11;100.00;99108.94;4969822;28;20061;-62
2022/02/17 02:26:56;;;;;;;43.58;20.05;;;;;;;2.18;100.00;99095.88;4960816;28;20081;-63
2022/02/17 02:29:45;;;;;;;41.83;19.58;;;;;;;2.07;100.00;99096.72;4932434;28;20851;-62
2022/02/17 02:32:33;;;;;;;39.28;19.10;;;;;;;2.10;100.00;99094.13;4938335;28;20054;-61
2022/02/17 02:35:17;;;;;;;39.13;18.92;;;;;;;2.19;100.00;99081.97;4946941;28;20102;-62
2022/02/17 02:38:02;;;;;;;43.90;19.55;;;;;;;2.05;100.00;99064.50;4952737;28;20074;-63
2022/02/17 02:40:48;;;;;;;42.35;19.40;;;;;;;2.07;100.00;99087.16;4955402;28;20052;-63
2022/02/17 02:43:58;;;;;;;40.55;19.98;;;;;;;1.89;100.00;99067.91;4944948;28;20077;-63
2022/02/17 02:46:44;;;;;;;40.60;19.10;;;;;;;1.92;100.00;99079.25;4952996;28;20580;-61
2022/02/17 02:49:28;;;;;;;38.50;19.30;;;;;;;2.06;100.00;99068.84;4928527;29;20070;-60
2022/02/17 02:52:13;;;;;;;35.05;18.35;;;;;;;2.26;100.00;99065.38;4924658;28;20551;-62
2022/02/17 02:55:00;;;;;;;43.50;19.70;;;;;;;2.03;100.00;99067.09;4935124;29;20098;-66
2022/02/17 02:57:45;;;;;;;39.65;17.92;;;;;;;1.93;100.00;99065.31;4934762;29;20590;-65
2022/02/17 03:00:33;;;;;;;34.03;16.00;;;;;;;1.89;100.00;99062.69;4961255;28;20433;-62
2022/02/17 03:03:18;;;;;;;34.83;16.90;;;;;;;1.64;100.00;99045.19;4947178;28;20447;-61
2022/02/17 03:06:03;;;;;;;35.67;16.73;;;;;;;1.55;100.00;99053.88;4945380;28;20078;-61
2022/02/17 03:08:47;;;;;;;31.25;15.25;;;;;;;1.54;100.00;99048.66;4959660;28;20049;-61
2022/02/17 03:11:34;;;;;;;33.72;16.48;;;;;;;1.68;100.00;99034.75;4959130;28;20133;-62
2022/02/17 03:14:18;;;;;;;32.78;15.23;;;;;;;1.50;100.00;98994.66;4930401;28;20518;-64
2022/02/17 03:17:05;;;;;;;36.05;16.20;;;;;;;1.85;100.00;99048.75;4945202;28;20050;-61
2022/02/17 03:19:52;;;;;;;33.38;15.88;;;;;;;1.76;100.00;99027.81;4917154;28;20380;-60
2022/02/17 03:22:38;;;;;;;30.48;13.23;;;;;;;1.47;100.00;99039.03;4944982;28;20109;-64
2022/02/17 03:25:24;;;;;;;32.83;14.80;;;;;;;1.24;100.00;98993.69;4947950;28;20053;-61
2022/02/17 03:28:09;;;;;;;36.33;15.70;;;;;;;1.35;100.00;99037.25;4959688;28;20066;-61
2022/02/17 03:31:08;;;;;;;33.97;14.57;;;;;;;1.57;100.00;99033.84;4938657;28;20084;-61
2022/02/17 03:34:05;;;;;;;31.38;14.73;;;;;;;1.55;100.00;99038.22;4943507;28;20102;-62
2022/02/17 03:36:53;;;;;;;33.42;14.80;;;;;;;1.66;100.00;99012.13;4941212;28;20053;-64
2022/02/17 03:39:38;;;;;;;37.58;16.13;;;;;;;1.66;100.00;99015.59;4944750;28;20114;-61
2022/02/17 03:42:27;;;;;;;34.22;15.13;;;;;;;1.43;100.00;98996.38;4958585;28;20194;-62
2022/02/17 03:45:15;;;;;;;31.70;14.27;;;;;;;1.65;100.00;98985.09;4943243;28;20725;-61
2022/02/17 03:48:04;;;;;;;32.92;15.10;;;;;;;1.56;100.00;99005.09;4916059;28;20081;-62
2022/02/17 03:50:49;;;;;;;30.00;12.68;;;;;;;1.50;100.00;98981.59;4929904;28;20049;-62
2022/02/17 03:53:36;;;;;;;41.28;16.10;;;;;;;1.50;100.00;98973.75;4956193;28;20073;-60
2022/02/17 03:56:23;;;;;;;35.60;14.70;;;;;;;1.51;100.00;98962.44;4927921;28;20433;-72
2022/02/17 03:59:32;;;;;;;33.95;14.65;;;;;;;1.45;100.00;98955.47;4934743;28;20053;-63
2022/02/17 04:02:16;;;;;;;34.75;15.23;;;;;;;1.50;100.00;98953.72;4943342;28;20097;-65
2022/02/17 04:05:02;;;;;;;36.50;14.73;;;;;;;1.53;100.00;98955.47;4962686;28;20081;-65
2022/02/17 04:07:47;;;;;;;34.08;15.20;;;;;;;1.64;100.00;98943.31;4944721;28;20126;-70
2022/02/17 04:10:41;;;;;;;33.42;14.98;;;;;;;1.66;100.00;98937.22;4963677;28;20053;-67
2022/02/17 04:13:35;;;;;;;31.55;13.57;;;;;;;1.75;100.00;98921.56;4941592;29;20101;-66
2022/02/17 04:16:21;;;;;;;31.83;13.68;;;;;;;1.83;100.00;98921.56;4953800;28;20565;-75
2022/02/17 04:19:21;;;;;;;30.70;13.82;;;;;;;1.75;100.00;98924.19;4948965;29;20054;-64
2022/02/17 04:22:36;;;;;;;32.10;14.88;;;;;;;1.92;100.00;98921.56;4889498;29;20181;-61
2022/02/17 04:25:50;;;;;;;30.30;14.02;;;;;;;1.97;100.00;98905.00;4902945;29;20094;-64
2022/02/17 04:28:57;;;;;;;27.35;11.60;;;;;;;1.96;100.00;98911.13;4935032;29;20071;-64
2022/02/17 04:31:45;;;;;;;29.33;13.45;;;;;;;1.98;100.00;98911.97;4922230;28;20126;-62
2022/02/17 04:34:30;;;;;;;24.70;11.15;;;;;;;2.01;100.00;98893.69;4939184;29;20579;-69
2022/02/17 04:37:28;;;;;;;26.23;11.73;;;;;;;2.02;100.00;98891.97;4923461;29;20050;-65
2022/02/17 04:40:13;;;;;;;27.83;12.07;;;;;;;2.11;100.00;98871.03;4934266;29;20055;-63
2022/02/17 04:43:07;;;;;;;28.65;13.05;;;;;;;2.29;100.00;98873.63;4915547;29;20069;-66
2022/02/17 04:45:56;;;;;;;22.25;10.90;;;;;;;2.21;100.00;98851.84;4944065;28;20069;-65
2022/02/17 04:48:41;;;;;;;26.85;11.55;;;;;;;2.15;100.00;98834.44;4936626;29;20145;-63
2022/02/17 04:51:30;;;;;;;22.23;11.65;;;;;;;2.20;100.00;98837.00;4928994;29;20050;-65
2022/02/17 04:54:16;;;;;;;21.75;10.88;;;;;;;2.54;100.00;98857.00;4914341;29;20075;-62
2022/02/17 04:57:05;;;;;;;26.95;12.35;;;;;;;2.63;100.00;98854.34;4941626;28;20081;-63
2022/02/17 04:59:56;;;;;;;24.05;11.52;;;;;;;2.72;100.00;98842.09;4973781;28;20061;-65
2022/02/17 05:02:40;;;;;;;28.67;12.95;;;;;;;2.62;100.00;98815.97;4975275;28;20419;-64
2022/02/17 05:05:34;;;;;;;26.00;12.55;;;;;;;2.75;100.00;98835.97;4972918;28;20138;-70
2022/02/17 05:08:19;;;;;;;25.50;13.40;;;;;;;2.93;100.00;98835.91;4976632;28;20136;-62
2022/02/17 05:11:05;;;;;;;28.60;13.43;;;;;;;3.00;100.00;98830.63;4974209;28;20097;-64
2022/02/17 05:13:50;;;;;;;22.42;12.30;;;;;;;2.87;100.00;98797.53;4963936;28;20049;-62
2022/02/17 05:16:36;;;;;;;27.30;12.88;;;;;;;3.19;100.00;98826.16;4990039;28;20073;-63
2022/02/17 05:19:20;;;;;;;22.30;11.55;;;;;;;2.90;100.00;98783.56;4964522;28;20045;-63
2022/02/17 05:22:11;;;;;;;27.55;12.02;;;;;;;3.21;100.00;98830.50;4964885;28;20543;-64
2022/02/17 05:25:16;;;;;;;19.80;11.33;;;;;;;3.14;100.00;98809.59;4961301;28;20086;-63
2022/02/17 05:28:27;;;;;;;24.10;11.13;;;;;;;3.28;100.00;98816.47;4964911;28;20428;-68
2022/02/17 05:31:32;;;;;;;19.98;10.40;;;;;;;3.34;100.00;98797.25;4944926;28;20109;-67
2022/02/17 05:34:32;;;;;;;17.33;9.18;;;;;;;3.35;100.00;98793.72;4951319;28;20416;-65
2022/02/17 05:37:40;;;;;;;20.23;10.02;;;;;;;3.19;100.00;98774.66;4943958;28;20049;-65
2022/02/17 05:41:03;;;;;;;20.20;10.15;;;;;;;3.21;100.00;98772.88;4886923;29;20600;-66
2022/02/17 05:43:47;;;;;;;20.08;10.23;;;;;;;3.25;100.00;98779.84;4875394;29;20087;-65
2022/02/17 05:46:32;;;;;;;17.52;9.60;;;;;;;3.07;100.00;98772.13;4886691;29;20087;-66
2022/02/17 05:49:18;;;;;;;20.55;10.95;;;;;;;2.98;100.00;98777.41;4860148;29;20170;-69
2022/02/17 05:52:03;;;;;;;25.95;11.02;;;;;;;2.85;100.00;98752.16;4887342;29;20135;-68
2022/02/17 05:54:48;;;;;;;18.38;10.43;;;;;;;2.79;100.00;98757.44;4883355;29;20524;-67
2022/02/17 05:57:32;;;;;;;24.70;10.43;;;;;;;2.73;100.00;98712.13;4869758;29;20149;-62
2022/02/17 06:00:19;;;;;;;19.65;9.48;;;;;;;3.00;100.00;98741.59;4885568;29;20056;-65
2022/02/17 06:03:03;;;;;;;18.50;10.45;;;;;;;3.16;100.00;98731.88;4903408;29;20068;-62
2022/02/17 06:05:48;;;;;;;19.80;9.43;;;;;;;3.12;100.00;98740.63;4883363;29;20158;-62
2022/02/17 06:08:32;;;;;;;21.70;10.20;;;;;;;3.13;100.00;98745.03;4885439;29;20577;-64
2022/02/17 06:11:17;;;;;;;19.30;9.68;;;;;;;3.21;100.00;98724.88;4936646;28;20351;-64
2022/02/17 06:14:02;;;;;;;19.10;10.13;;;;;;;3.23;100.00;98723.09;4975560;28;20154;-64
2022/02/17 06:16:47;;;;;;;21.55;9.75;;;;;;;2.85;100.00;98722.53;4984050;28;20072;-63
2022/02/17 06:19:31;;;;;;;21.60;9.85;;;;;;;2.87;100.00;98718.13;4974896;28;20121;-64
2022/02/17 06:22:16;;;;;;;21.42;9.65;;;;;;;2.94;100.00;98717.22;4965906;28;20523;-65
2022/02/17 06:25:01;;;;;;;25.45;10.38;;;;;;;2.96;100.00;98711.09;4986837;28;20195;-61
2022/02/17 06:27:47;;;;;;;21.00;10.32;;;;;;;2.96;100.00;98690.16;4975837;28;20066;-60
2022/02/17 06:30:32;;;;;;;21.52;10.65;;;;;;;3.13;100.00;98690.88;4980011;28;20126;-61
2022/02/17 06:33:19;;;;;;;18.48;9.23;;;;;;;3.26;100.00;98682.06;4948633;29;20058;-63
2022/02/17 06:36:04;;;;;;;21.92;10.32;;;;;;;3.29;100.00;98683.78;4949888;29;20547;-62
2022/02/17 06:38:49;;;;;;;23.80;11.57;;;;;;;3.39;100.00;98683.69;4934205;28;20127;-57
2022/02/17 06:41:34;;;;;;;22.27;11.07;;;;;;;3.17;100.00;98671.63;4967447;28;20116;-66
2022/02/17 06:44:20;;;;;;;21.75;9.82;;;;;;;3.19;100.00;98685.59;4968884;28;20069;-65
2022/02/17 06:47:05;;;;;;;20.55;10.70;;;;;;;3.20;100.00;98663.78;4970556;28;20509;-70
2022/02/17 06:49:49;;;;;;;19.42;9.88;;;;;;;3.00;100.00;98663.06;4955654;28;20535;-63
2022/02/17 06:52:34;;;;;;;19.45;10.07;;;;;;;2.90;100.00;98663.16;4947810;29;20119;-64
2022/02/17 06:55:18;;;;;;;21.85;9.43;;;;;;;2.93;100.00;98644.81;4949282;28;20058;-64
2022/02/17 06:58:03;;;;;;;18.52;9.05;;;;;;;3.05;100.00;98650.81;4948664;29;20109;-63
2022/02/17 07:00:47;;;;;;;18.05;8.90;;;;;;;2.94;100.00;98638.69;4940554;28;20138;-66
2022/02/17 07:03:32;;;;;;;17.48;8.55;;;;;;;3.04;100.00;98649.06;4944171;28;20054;-64
2022/02/17 07:06:17;;;;;;;15.02;8.77;;;;;;;3.02;100.00;98650.84;4934828;29;20136;-71
2022/02/17 07:09:02;;;;;;;14.80;7.85;;;;;;;3.12;100.00;98635.91;4958397;28;20057;-64
2022/02/17 07:11:46;;;;;;;15.70;8.38;;;;;;;3.19;100.00;98632.34;4922577;28;20082;-65
2022/02/17 07:14:30;;;;;;;17.17;8.70;;;;;;;3.17;100.00;98621.03;4954367;28;20061;-64
2022/02/17 07:17:15;;;;;;;17.00;8.70;;;;;;;3.10;100.00;98620.22;4960254;28;20050;-62
2022/02/17 07:19:59;;;;;;;18.15;8.07;;;;;;;3.17;100.00;98614.03;4960009;28;20105;-63
2022/02/17 07:22:44;;;;;;;14.95;7.65;;;;;;;3.08;100.00;98610.63;4945684;28;20101;-62
2022/02/17 07:25:30;;;;;;;13.25;7.43;;;;;;;3.01;100.00;98609.81;4958841;28;20086;-61
2022/02/17 07:28:15;;;;;;;16.83;7.88;;;;;;;2.99;100.00;98597.63;4945496;28;20144;-59
2022/02/17 07:31:00;;;;;;;16.98;8.23;;;;;;;3.10;100.00;98604.53;4965125;28;20061;-63
2022/02/17 07:33:44;;;;;;;14.90;7.85;;;;;;;3.12;100.00;98567.81;4930581;28;20086;-65
2022/02/17 07:36:29;;;;;;;13.20;7.65;;;;;;;3.16;100.00;98569.53;4943364;28;20101;-66
2022/02/17 07:39:15;;;;;;;14.10;7.38;;;;;;;3.12;100.00;98531.16;4927909;28;20165;-64
2022/02/17 07:42:00;;;;;;;16.15;7.25;;;;;;;3.29;100.00;98547.59;4962009;28;20711;-62
2022/02/17 07:44:45;;;;;;;11.93;7.53;;;;;;;3.55;100.00;98546.41;4958010;28;20073;-62
2022/02/17 07:47:30;;;;;;;13.50;7.35;;;;;;;3.73;100.00;98538.28;4953943;28;20058;-60
2022/02/17 07:50:17;;;;;;;15.18;7.82;;;;;;;3.66;100.00;98539.28;4938625;29;20110;-68
2022/02/17 07:53:02;;;;;;;15.52;7.97;;;;;;;3.82;100.00;98530.34;4940146;29;20105;-65
2022/02/17 07:55:46;;;;;;;14.30;8.70;;;;;;;3.83;100.00;98518.06;4948599;29;20050;-62
2022/02/17 07:58:33;;;;;;;15.98;8.73;;;;;;;4.02;100.00;98519.56;4921024;29;20105;-62
2022/02/17 08:01:18;;;;;;;17.17;8.07;;;;;;;3.85;100.00;98516.31;4954637;28;20485;-64
2022/02/17 08:04:03;;;;;;;16.05;7.82;;;;;;;3.88;100.00;98527.63;4956897;28;20179;-71
2022/02/17 08:06:47;;;;;;;13.73;7.55;;;;;;;3.86;100.00;98518.03;4950373;28;20058;-60
2022/02/17 08:09:34;;;;;;;14.27;7.80;;;;;;;4.00;100.00;98503.00;4952321;28;20057;-61
2022/02/17 08:12:20;;;;;;;15.15;8.73;;;;;;;4.15;100.00;98497.50;4906583;29;20537;-61
2022/02/17 08:15:05;;;;;;;14.73;7.85;;;;;;;4.16;100.00;98512.38;4959698;28;20477;-60
2022/02/17 08:17:50;;;;;;;16.88;8.35;;;;;;;4.27;100.00;98505.19;4934090;28;20054;-62
2022/02/17 08:20:34;;;;;;;16.02;8.88;;;;;;;4.31;100.00;98485.88;4954275;28;20086;-61
2022/02/17 08:23:19;;;;;;;19.60;8.65;;;;;;;4.32;100.00;98470.13;4950420;28;20145;-62
2022/02/17 08:26:03;;;;;;;16.37;9.20;;;;;;;4.55;100.00;98483.75;4938602;28;20533;-61
2022/02/17 08:28:55;;;;;;;18.33;9.52;;;;;;;4.44;100.00;98448.94;4931453;28;20293;-62
2022/02/17 08:31:42;;;;;;;17.40;9.43;;;;;;;4.54;100.00;98489.88;4954603;28;20049;-60
2022/02/17 08:34:26;;;;;;;17.38;10.18;;;;;;;4.61;100.00;98488.91;4957334;28;20108;-63
2022/02/17 08:37:11;;;;;;;19.37;9.93;;;;;;;4.75;100.00;98475.53;4956719;28;20065;-65
2022/02/17 08:39:56;;;;;;;15.18;8.45;;;;;;;4.92;100.00;98473.47;4948472;29;20759;-63
2022/02/17 08:42:42;;;;;;;16.13;9.05;;;;;;;5.00;100.00;98475.03;4937850;28;20098;-61
2022/02/17 08:45:26;;;;;;;18.40;9.98;;;;;;;5.18;100.00;98465.09;4906855;29;20138;-60
2022/02/17 08:48:12;;;;;;;16.92;9.88;;;;;;;4.79;100.00;98409.81;4946201;29;20471;-59
2022/02/17 08:50:57;;;;;;;16.23;9.23;;;;;;;5.09;100.00;98466.13;4924946;28;20526;-61
2022/02/17 08:53:46;;;;;;;17.77;8.65;;;;;;;4.88;100.00;98459.50;4949170;28;20473;-62
2022/02/17 08:56:32;;;;;;;14.90;8.63;;;;;;;4.87;100.00;98457.78;4905207;28;20424;-61
2022/02/17 08:59:18;;;;;;;14.55;7.93;;;;;;;4.64;100.00;98462.56;4925679;28;20057;-61
2022/02/17 09:02:03;;;;;;;18.45;9.65;;;;;;;4.73;100.00;98414.31;4969908;28;20124;-60
2022/02/17 09:04:47;;;;;;;15.55;7.95;;;;;;;5.16;100.00;98444.09;4975889;28;20076;-59
2022/02/17 09:07:31;;;;;;;16.50;8.57;;;;;;;4.95;100.00;98419.13;4966801;28;20062;-63
2022/02/17 09:10:16;;;;;;;17.50;9.20;;;;;;;4.79;100.00;98420.31;4967442;28;20607;-57
2022/02/17 09:13:00;;;;;;;14.50;9.10;;;;;;;4.99;100.00;98438.31;4955188;28;20322;-62
2022/02/17 09:15:45;;;;;;;16.73;8.82;;;;;;;5.00;100.00;98435.63;4955575;28;20113;-80
2022/02/17 09:18:31;;;;;;;13.38;7.45;;;;;;;4.72;100.00;98426.56;4984522;28;20097;-60
2022/02/17 09:21:17;;;;;;;18.92;9.55;;;;;;;4.77;100.00;98426.47;4936810;28;20066;-59
2022/02/17 09:24:03;;;;;;;18.40;9.93;;;;;;;4.99;100.00;98418.16;4952112;28;20057;-62
2022/02/17 09:26:48;;;;;;;14.32;8.30;;;;;;;4.70;100.00;98365.34;4948545;28;20080;-59
2022/02/17 09:29:33;;;;;;;18.10;9.05;;;;;;;4.88;100.00;98400.91;4953962;28;20077;-64
2022/02/17 09:32:18;;;;;;;18.15;9.73;;;;;;;4.99;100.00;98391.06;4976833;28;20072;-59
2022/02/17 09:35:03;;;;;;;19.02;9.68;;;;;;;5.00;100.00;98385.75;4989091;28;20065;-60
2022/02/17 09:37:48;;;;;;;16.13;9.05;;;;;;;5.08;100.00;98389.06;4971314;28;20072;-59
2022/02/17 09:40:32;;;;;;;16.25;8.80;;;;;;;5.00;100.00;98343.72;4985885;28;20057;-60
2022/02/17 09:43:17;;;;;;;18.35;9.38;;;;;;;4.96;100.00;98362.22;4988531;28;20431;-62
2022/02/17 09:46:01;;;;;;;19.27;9.68;;;;;;;5.01;100.00;98355.09;4980069;28;20089;-61
2022/02/17 09:48:50;;;;;;;17.92;9.00;;;;;;;4.92;100.00;98316.75;4974897;28;20061;-61
2022/02/17 09:51:36;;;;;;;16.65;8.50;;;;;;;5.02;100.00;98343.69;4987997;28;20044;-59
2022/02/17 09:54:22;;;;;;;16.67;8.80;;;;;;;5.00;100.00;98340.25;4984292;28;20050;-61
2022/02/17 09:57:07;;;;;;;19.23;8.98;;;;;;;4.84;100.00;98326.56;4969391;28;20158;-58
2022/02/17 09:59:51;;;;;;;17.73;9.40;;;;;;;5.07;100.00;98321.69;4980344;28;20057;-67
2022/02/17 10:02:35;;;;;;;16.67;9.25;;;;;;;5.38;100.00;98313.16;4980238;28;20053;-59
2022/02/17 10:05:20;;;;;;;14.73;8.38;;;;;;;5.46;100.00;98311.22;4976917;28;20053;-61
2022/02/17 10:08:21;;;;;;;17.13;8.65;;;;;;;5.38;100.00;98314.00;4976144;28;20057;-63
2022/02/17 10:11:08;;;;;;;16.88;9.45;;;;;;;5.60;100.00;98309.09;4980926;28;20060;-60
2022/02/17 10:14:28;;;;;;;17.17;9.15;;;;;;;5.76;100.00;98313.97;4946649;28;20053;-63
2022/02/17 10:17:14;;;;;;;19.88;9.68;;;;;;;5.50;100.00;98300.56;4942679;28;20099;-61
2022/02/17 10:20:00;;;;;;;19.77;9.80;;;;;;;5.57;100.00;98294.28;4931223;29;20058;-60
2022/02/17 10:22:50;;;;;;;20.25;10.65;;;;;;;5.59;100.00;98283.72;4940231;29;20055;-61
2022/02/17 10:25:35;;;;;;;22.48;11.32;;;;;;;5.61;100.00;98277.53;4929184;29;20051;-60
2022/02/17 10:28:19;;;;;;;23.40;11.20;;;;;;;5.79;100.00;98274.47;4940607;28;20131;-61
2022/02/17 10:31:06;;;;;;;19.48;10.75;;;;;;;5.88;100.00;98281.25;4929521;29;20058;-60
2022/02/17 10:33:54;;;;;;;20.00;10.82;;;;;;;5.73;100.00;98284.28;4937566;29;20436;-68
2022/02/17 10:36:45;;;;;;;20.33;11.13;;;;;;;5.50;100.00;98278.69;4918900;29;20061;-60
2022/02/17 10:39:34;;;;;;;19.08;10.82;;;;;;;5.31;100.00;98252.00;4920448;29;20066;-61
2022/02/17 10:42:19;;;;;;;19.58;10.27;;;;;;;5.42;100.00;98251.72;4948318;28;20117;-64
2022/02/17 10:45:33;;;;;;;20.42;10.43;;;;;;;5.60;100.00;98231.13;4941169;28;20070;-61
2022/02/17 10:48:27;;;;;;;20.77;11.25;;;;;;;5.60;100.00;98210.09;4950733;28;20049;-60
2022/02/17 10:51:16;;;;;;;20.75;10.45;;;;;;;5.60;100.00;98202.19;5001424;28;20068;-61
2022/02/17 10:54:01;;;;;;;20.25;10.80;;;;;;;5.67;100.00;98213.41;4999780;28;20065;-64
2022/02/17 10:56:46;;;;;;;20.90;10.70;;;;;;;5.55;100.00;98163.78;4985282;28;20603;-60
2022/02/17 11:02:42;;;;;;;18.35;9.70;;;;;;;5.85;100.00;98181.44;4995994;28;20208;-60
2022/02/17 11:05:26;;;;;;;20.70;11.02;;;;;;;5.73;100.00;98185.19;4988437;28;20072;-66
2022/02/17 11:08:14;;;;;;;18.58;10.52;;;;;;;5.64;100.00;98164.41;4956794;28;20512;-60
2022/02/17 11:10:59;;;;;;;22.48;11.00;;;;;;;5.93;100.00;98168.94;4987155;28;20104;-63
2022/02/17 11:13:45;;;;;;;18.55;10.65;;;;;;;5.91;100.00;98134.78;4989046;28;20141;-61
2022/02/17 11:16:30;;;;;;;17.02;9.85;;;;;;;5.89;100.00;98148.88;4972789;28;20455;-62
2022/02/17 11:19:17;;;;;;;17.92;9.55;;;;;;;5.95;100.00;98127.66;4961833;28;20053;-60
2022/02/17 11:22:02;;;;;;;20.23;10.73;;;;;;;6.35;100.00;98118.59;4968208;28;20057;-60
2022/02/17 11:24:52;;;;;;;16.25;9.93;;;;;;;6.78;100.00;98118.13;4980796;28;20057;-63
2022/02/17 11:27:58;;;;;;;20.27;8.50;;;;;;;6.88;100.00;98115.16;4995850;28;20060;-62
2022/02/17 11:30:58;;;;;;;18.10;11.00;;;;;;;7.03;100.00;98101.50;4981437;28;20338;-65
2022/02/17 11:33:57;;;;;;;20.90;11.25;;;;;;;6.97;100.00;98106.13;4987632;28;20466;-63
2022/02/17 11:36:42;;;;;;;23.80;11.88;;;;;;;6.86;100.00;98117.00;4983641;28;20150;-64
2022/02/17 11:40:04;;;;;;;20.08;11.38;;;;;;;6.87;100.00;98099.41;4961461;28;20444;-63
2022/02/17 11:43:03;;;;;;;22.05;11.32;;;;;;;6.88;100.00;98087.97;4979487;28;20529;-65
2022/02/17 11:45:49;;;;;;;22.40;11.32;;;;;;;6.79;100.00;98073.31;4973853;28;20057;-64
2022/02/17 11:48:44;;;;;;;19.45;10.90;;;;;;;6.73;100.00;98089.31;4976364;28;20081;-67
2022/02/17 11:51:29;;;;;;;24.17;12.13;;;;;;;6.71;100.00;98085.88;4984491;28;20110;-62
2022/02/17 11:54:16;;;;;;;20.77;11.57;;;;;;;6.58;100.00;98068.75;4968328;28;20137;-64
2022/02/17 11:57:01;;;;;;;26.80;12.35;;;;;;;6.53;100.00;98057.47;4966587;28;20061;-61
2022/02/17 11:59:47;;;;;;;25.42;11.98;;;;;;;6.54;100.00;98045.19;4977369;28;20073;-62
2022/02/17 12:02:43;;;;;;;22.10;12.05;;;;;;;6.43;100.00;98050.78;4981938;28;20402;-62
2022/02/17 12:05:31;;;;;;;22.48;11.35;;;;;;;6.21;100.00;98062.84;4975075;28;20537;-60
2022/02/17 12:08:24;;;;;;;23.60;11.80;;;;;;;6.25;100.00;98069.75;4980919;28;20068;-61
2022/02/17 12:11:31;;;;;;;23.45;12.27;;;;;;;5.90;100.00;98013.84;4978429;28;20141;-61
2022/02/17 12:14:21;;;;;;;25.30;12.68;;;;;;;6.31;100.00;98031.88;4966275;28;20380;-62
2022/02/17 12:17:07;;;;;;;25.98;12.23;;;;;;;6.32;100.00;98010.78;4992592;28;20150;-61
2022/02/17 12:20:18;;;;;;;23.95;11.88;;;;;;;6.39;100.00;97999.16;4972162;28;20546;-60
2022/02/17 12:23:10;;;;;;;25.80;12.57;;;;;;;6.34;100.00;97994.94;4968469;28;20141;-60
2022/02/17 12:25:55;;;;;;;24.15;12.25;;;;;;;6.15;100.00;97989.38;4970963;28;20061;-63
2022/02/17 12:28:40;;;;;;;20.13;11.05;;;;;;;5.92;100.00;97980.47;4953642;28;20125;-61
2022/02/17 12:31:38;;;;;;;22.50;11.50;;;;;;;5.70;100.00;97967.06;4942448;28;20159;-63
2022/02/17 12:34:25;;;;;;;25.35;13.13;;;;;;;5.84;100.00;97954.41;4968125;28;20518;-63
2022/02/17 12:37:19;;;;;;;28.73;14.73;;;;;;;6.03;100.00;97963.47;4957552;28;20083;-60
2022/02/17 12:40:06;;;;;;;25.33;13.73;;;;;;;5.90;100.00;97977.91;4947059;29;20062;-59
2022/02/17 12:42:53;;;;;;;28.35;13.90;;;;;;;5.55;100.00;97954.38;4933673;29;20126;-62
2022/02/17 12:45:45;;;;;;;29.17;14.93;;;;;;;5.68;100.00;97949.59;4954446;28;20053;-60
2022/02/17 12:48:33;;;;;;;28.35;15.90;;;;;;;5.64;100.00;97961.13;4966299;28;20049;-65
2022/02/17 12:51:33;;;;;;;32.88;16.45;;;;;;;5.74;100.00;97960.78;4950023;28;20058;-58
2022/02/17 12:54:21;;;;;;;28.38;15.98;;;;;;;5.51;100.00;97946.63;4950062;28;20067;-61
2022/02/17 12:57:15;;;;;;;35.15;16.38;;;;;;;5.50;100.00;97945.75;4966002;28;20077;-61
2022/02/17 13:00:00;;;;;;;34.20;16.90;;;;;;;5.25;100.00;97943.91;4953180;28;20057;-60